Time;durP1;ratioP1;P1;durP2;ratioP2;P2;SDS_P1;SDS_P2;PMS_P1;PMS_P2;Temp;Humidity;BMP_temperature;BMP_pressure;BME280_temperature;BME280_humidity;BME280_pressure;Samples;Min_cycle;Max_cycle;Signal;HPM_P1;HPM_P2
2023/07/29 00:01:54;;;;;;;5.07;3.00;;;;;;;;;;5068246;28;20562;-65
2023/07/29 00:04:21;;;;;;;5.70;3.20;;;;;;;;;;5064800;28;20041;-66
2023/07/29 00:06:48;;;;;;;6.07;3.35;;;;;;;;;;5064915;28;20056;-65
2023/07/29 00:09:14;;;;;;;5.68;3.58;;;;;;;;;;5069178;28;20414;-65
2023/07/29 00:11:41;;;;;;;5.35;3.22;;;;;;;;;;5066225;28;20089;-65
2023/07/29 00:14:07;;;;;;;5.88;3.13;;;;;;;;;;5065908;28;20205;-65
2023/07/29 00:16:34;;;;;;;4.65;2.88;;;;;;;;;;5064129;28;20112;-65
2023/07/29 00:19:01;;;;;;;4.85;2.90;;;;;;;;;;5066694;28;20040;-65
2023/07/29 00:21:27;;;;;;;6.13;3.13;;;;;;;;;;5064657;28;20448;-66
2023/07/29 00:23:54;;;;;;;4.47;2.88;;;;;;;;;;5065175;28;20079;-65
2023/07/29 00:26:21;;;;;;;4.97;2.78;;;;;;;;;;5065881;28;21403;-65
2023/07/29 00:28:48;;;;;;;4.85;2.78;;;;;;;;;;5065417;28;20475;-64
2023/07/29 00:31:14;;;;;;;5.30;2.47;;;;;;;;;;5067061;28;20040;-65
2023/07/29 00:33:41;;;;;;;6.13;2.42;;;;;;;;;;5065085;28;20079;-64
2023/07/29 00:36:07;;;;;;;4.75;2.40;;;;;;;;;;5067544;28;20093;-66
2023/07/29 00:38:34;;;;;;;4.40;2.25;;;;;;;;;;5042858;28;20039;-65
2023/07/29 00:41:03;;;;;;;4.15;2.33;;;;;;;;;;5068307;28;20062;-65
2023/07/29 00:43:30;;;;;;;4.68;2.28;;;;;;;;;;5064744;28;20040;-65
2023/07/29 00:45:57;;;;;;;4.63;2.30;;;;;;;;;;5066348;28;20119;-65
2023/07/29 00:48:24;;;;;;;4.60;2.10;;;;;;;;;;5066317;28;20033;-64
2023/07/29 00:50:51;;;;;;;4.82;2.25;;;;;;;;;;5062118;28;20036;-65
2023/07/29 00:53:17;;;;;;;5.38;2.40;;;;;;;;;;5065308;28;20037;-65
2023/07/29 00:55:44;;;;;;;5.25;2.45;;;;;;;;;;5063583;28;20068;-64
2023/07/29 00:58:11;;;;;;;4.82;2.60;;;;;;;;;;5061080;28;20139;-65
2023/07/29 01:00:37;;;;;;;3.90;1.98;;;;;;;;;;5066294;28;21739;-65
2023/07/29 01:03:05;;;;;;;4.57;2.55;;;;;;;;;;5065021;28;20076;-65
2023/07/29 01:05:36;;;;;;;4.18;2.30;;;;;;;;;;5063000;28;20442;-65
2023/07/29 01:08:03;;;;;;;4.22;2.28;;;;;;;;;;5064312;28;20127;-65
2023/07/29 01:10:39;;;;;;;5.75;2.67;;;;;;;;;;5062776;28;20039;-65
2023/07/29 01:13:21;;;;;;;4.53;2.22;;;;;;;;;;5063527;28;20036;-65
2023/07/29 01:15:50;;;;;;;5.90;2.55;;;;;;;;;;5062114;28;20048;-65
2023/07/29 01:18:23;;;;;;;5.70;2.47;;;;;;;;;;5062865;28;20081;-66
2023/07/29 01:20:52;;;;;;;4.40;2.00;;;;;;;;;;5062186;28;20042;-65
2023/07/29 01:23:24;;;;;;;6.70;2.70;;;;;;;;;;5060893;28;20217;-66
2023/07/29 01:25:51;;;;;;;6.55;2.70;;;;;;;;;;5061584;28;20945;-64
2023/07/29 01:28:17;;;;;;;5.80;2.45;;;;;;;;;;5061755;28;20040;-64
2023/07/29 01:30:44;;;;;;;5.03;2.60;;;;;;;;;;5062421;28;20048;-65
2023/07/29 01:33:17;;;;;;;6.22;2.42;;;;;;;;;;5060664;28;20106;-65
2023/07/29 01:35:47;;;;;;;4.82;2.60;;;;;;;;;;5060830;28;20510;-65
2023/07/29 01:38:13;;;;;;;5.00;2.40;;;;;;;;;;5038995;28;20044;-64
2023/07/29 01:40:41;;;;;;;4.68;2.50;;;;;;;;;;5059509;28;20036;-64
2023/07/29 01:43:08;;;;;;;4.97;2.70;;;;;;;;;;5062258;28;20044;-65
2023/07/29 01:45:37;;;;;;;4.70;2.70;;;;;;;;;;5042535;28;20129;-64
2023/07/29 01:48:05;;;;;;;6.38;2.20;;;;;;;;;;5036280;28;21845;-66
2023/07/29 01:50:32;;;;;;;5.25;2.60;;;;;;;;;;5062845;28;20044;-64
2023/07/29 01:52:59;;;;;;;5.25;2.35;;;;;;;;;;5060202;28;20040;-64
2023/07/29 01:55:25;;;;;;;4.40;2.40;;;;;;;;;;5059672;28;21916;-64
2023/07/29 01:57:52;;;;;;;6.95;2.35;;;;;;;;;;5060625;28;20044;-66
2023/07/29 02:00:19;;;;;;;4.70;2.20;;;;;;;;;;5045172;28;20595;-65
2023/07/29 02:02:46;;;;;;;4.75;2.45;;;;;;;;;;5060513;28;20051;-64
2023/07/29 02:05:13;;;;;;;4.78;2.20;;;;;;;;;;5060659;28;20520;-66
2023/07/29 02:07:39;;;;;;;4.72;2.35;;;;;;;;;;5061374;28;20048;-65
2023/07/29 02:10:06;;;;;;;4.97;2.58;;;;;;;;;;5063906;28;20167;-65
2023/07/29 02:12:33;;;;;;;7.05;2.60;;;;;;;;;;5061553;28;20039;-66
2023/07/29 02:14:59;;;;;;;5.18;2.40;;;;;;;;;;5061214;28;20052;-63
2023/07/29 02:17:26;;;;;;;4.82;2.60;;;;;;;;;;5060437;28;20128;-64
2023/07/29 02:19:52;;;;;;;4.50;2.60;;;;;;;;;;5060893;28;20037;-66
2023/07/29 02:22:19;;;;;;;5.43;2.80;;;;;;;;;;5059112;28;20033;-64
2023/07/29 02:24:46;;;;;;;5.35;2.50;;;;;;;;;;5057612;28;20032;-64
2023/07/29 02:27:12;;;;;;;6.93;2.45;;;;;;;;;;5063242;28;20032;-66
2023/07/29 02:29:39;;;;;;;4.53;2.35;;;;;;;;;;5058823;28;20486;-65
2023/07/29 02:32:06;;;;;;;4.18;2.33;;;;;;;;;;5060274;28;20037;-65
2023/07/29 02:34:32;;;;;;;7.68;2.17;;;;;;;;;;5057196;28;20036;-65
2023/07/29 02:36:59;;;;;;;7.03;2.20;;;;;;;;;;5058006;28;20044;-64
2023/07/29 02:39:25;;;;;;;8.18;3.70;;;;;;;;;;5059227;28;20055;-64
2023/07/29 02:41:52;;;;;;;6.40;3.70;;;;;;;;;;5046521;28;20133;-66
2023/07/29 02:44:19;;;;;;;5.45;2.58;;;;;;;;;;5059853;28;20044;-64
2023/07/29 02:46:46;;;;;;;5.20;2.45;;;;;;;;;;5034422;28;20045;-64
2023/07/29 02:49:13;;;;;;;4.75;2.53;;;;;;;;;;5058619;28;20047;-67
2023/07/29 02:51:39;;;;;;;4.88;2.50;;;;;;;;;;5055897;28;20791;-63
2023/07/29 02:54:06;;;;;;;6.28;2.35;;;;;;;;;;5062344;28;20534;-65
2023/07/29 02:56:32;;;;;;;6.07;2.40;;;;;;;;;;5059709;28;20044;-66
2023/07/29 02:59:00;;;;;;;4.88;2.42;;;;;;;;;;5061111;28;20051;-65
2023/07/29 03:01:26;;;;;;;6.05;2.90;;;;;;;;;;5057622;28;20038;-64
2023/07/29 03:03:53;;;;;;;6.78;3.40;;;;;;;;;;5042063;28;20152;-69
2023/07/29 03:06:19;;;;;;;7.18;3.50;;;;;;;;;;5043542;28;20044;-65
2023/07/29 03:08:46;;;;;;;5.55;3.08;;;;;;;;;;5061313;28;20086;-63
2023/07/29 03:11:14;;;;;;;6.32;2.38;;;;;;;;;;5058014;28;20067;-67
2023/07/29 03:13:40;;;;;;;4.00;2.30;;;;;;;;;;5055514;28;20583;-66
2023/07/29 03:16:11;;;;;;;5.57;2.50;;;;;;;;;;5036595;28;20052;-66
2023/07/29 03:18:38;;;;;;;5.22;2.72;;;;;;;;;;5047275;28;20040;-66
2023/07/29 03:21:05;;;;;;;5.15;3.17;;;;;;;;;;5064597;28;20185;-65
2023/07/29 03:23:33;;;;;;;6.07;3.58;;;;;;;;;;5034804;28;20122;-65
2023/07/29 03:26:19;;;;;;;8.30;4.35;;;;;;;;;;5040520;28;20159;-65
2023/07/29 03:28:46;;;;;;;15.75;8.00;;;;;;;;;;5043005;28;20749;-65
2023/07/29 03:31:12;;;;;;;8.20;3.78;;;;;;;;;;5028660;28;20410;-65
2023/07/29 03:33:39;;;;;;;5.45;2.65;;;;;;;;;;5020640;28;20037;-64
2023/07/29 03:36:06;;;;;;;4.60;2.50;;;;;;;;;;5047137;28;20413;-65
2023/07/29 03:38:39;;;;;;;4.35;2.45;;;;;;;;;;5043898;28;20036;-65
2023/07/29 03:41:06;;;;;;;5.68;2.70;;;;;;;;;;5033845;28;20037;-65
2023/07/29 03:43:33;;;;;;;4.90;2.95;;;;;;;;;;5043936;28;20036;-65
2023/07/29 03:46:01;;;;;;;5.25;2.80;;;;;;;;;;5027003;28;20036;-66
2023/07/29 03:48:27;;;;;;;8.20;2.38;;;;;;;;;;5045585;28;20037;-66
2023/07/29 03:50:54;;;;;;;7.78;2.88;;;;;;;;;;5043384;28;20068;-66
2023/07/29 03:53:21;;;;;;;6.53;2.78;;;;;;;;;;5045497;28;20092;-66
2023/07/29 03:55:49;;;;;;;4.60;2.63;;;;;;;;;;5045643;28;21035;-64
2023/07/29 03:58:16;;;;;;;6.22;3.30;;;;;;;;;;5029448;28;20509;-64
2023/07/29 04:00:43;;;;;;;5.13;3.20;;;;;;;;;;5025940;28;20109;-66
2023/07/29 04:03:09;;;;;;;5.47;3.22;;;;;;;;;;5044297;28;20048;-65
2023/07/29 04:05:36;;;;;;;9.38;3.30;;;;;;;;;;5041402;28;20052;-65
2023/07/29 04:08:03;;;;;;;5.13;2.80;;;;;;;;;;5045336;28;21009;-70
2023/07/29 04:10:31;;;;;;;10.40;3.20;;;;;;;;;;5045089;28;20386;-64
2023/07/29 04:12:58;;;;;;;5.82;3.10;;;;;;;;;;5043558;28;20041;-63
2023/07/29 04:15:24;;;;;;;7.07;4.30;;;;;;;;;;5056540;28;20064;-63
2023/07/29 04:17:51;;;;;;;5.68;3.22;;;;;;;;;;5043373;28;20374;-64
2023/07/29 04:20:18;;;;;;;6.90;3.17;;;;;;;;;;5043241;28;20041;-65
2023/07/29 04:22:44;;;;;;;4.43;2.67;;;;;;;;;;5043743;28;20443;-65
2023/07/29 04:25:11;;;;;;;4.40;2.50;;;;;;;;;;5042913;28;20048;-62
2023/07/29 04:27:38;;;;;;;5.05;2.75;;;;;;;;;;5043074;28;20135;-63
2023/07/29 04:30:05;;;;;;;4.65;2.97;;;;;;;;;;5055403;28;20077;-64
2023/07/29 04:32:32;;;;;;;6.55;2.75;;;;;;;;;;5046509;28;20405;-65
2023/07/29 04:34:58;;;;;;;5.45;2.83;;;;;;;;;;5039736;28;20044;-67
2023/07/29 04:37:25;;;;;;;6.65;3.03;;;;;;;;;;5037913;28;20052;-66
2023/07/29 04:39:51;;;;;;;5.50;3.20;;;;;;;;;;5041531;28;20044;-66
2023/07/29 04:42:18;;;;;;;7.60;3.40;;;;;;;;;;5043494;28;20087;-66
2023/07/29 04:44:45;;;;;;;5.68;3.03;;;;;;;;;;5042289;28;20079;-64
2023/07/29 04:47:11;;;;;;;4.65;2.85;;;;;;;;;;5041876;28;20078;-65
2023/07/29 04:49:38;;;;;;;6.25;3.00;;;;;;;;;;5042485;28;20047;-65
2023/07/29 04:52:05;;;;;;;6.30;3.28;;;;;;;;;;5039890;28;20105;-66
2023/07/29 04:54:31;;;;;;;5.80;3.25;;;;;;;;;;5042142;28;20509;-65
2023/07/29 04:56:58;;;;;;;5.65;3.15;;;;;;;;;;5041908;28;20045;-64
2023/07/29 04:59:25;;;;;;;5.10;2.90;;;;;;;;;;5042616;28;20049;-65
2023/07/29 05:01:51;;;;;;;6.05;2.97;;;;;;;;;;5042018;28;20039;-65
2023/07/29 05:04:18;;;;;;;8.45;3.25;;;;;;;;;;5060018;28;20050;-64
2023/07/29 05:06:44;;;;;;;5.47;2.92;;;;;;;;;;5061912;28;20044;-65
2023/07/29 05:09:16;;;;;;;4.80;2.80;;;;;;;;;;5063270;28;20047;-64
2023/07/29 05:11:46;;;;;;;5.95;3.45;;;;;;;;;;5054749;28;20063;-65
2023/07/29 05:14:17;;;;;;;6.03;2.95;;;;;;;;;;5061963;28;20055;-65
2023/07/29 05:16:44;;;;;;;6.45;3.10;;;;;;;;;;5061430;28;20048;-65
2023/07/29 05:19:11;;;;;;;5.90;3.50;;;;;;;;;;5063004;28;20381;-66
2023/07/29 05:21:38;;;;;;;5.05;3.13;;;;;;;;;;5062472;28;20122;-66
2023/07/29 05:24:05;;;;;;;6.60;3.33;;;;;;;;;;5047448;28;20041;-66
2023/07/29 05:26:32;;;;;;;7.43;3.35;;;;;;;;;;5061075;28;20049;-65
2023/07/29 05:28:58;;;;;;;7.03;3.20;;;;;;;;;;5059190;28;20052;-64
2023/07/29 05:31:25;;;;;;;6.15;3.13;;;;;;;;;;5061985;28;20389;-64
2023/07/29 05:33:52;;;;;;;6.25;3.08;;;;;;;;;;5061032;28;20087;-66
2023/07/29 05:36:18;;;;;;;5.25;3.00;;;;;;;;;;5043336;28;20436;-65
2023/07/29 05:38:45;;;;;;;4.20;2.80;;;;;;;;;;5061135;28;20036;-65
2023/07/29 05:41:11;;;;;;;5.20;3.00;;;;;;;;;;5064558;28;20174;-65
2023/07/29 05:43:38;;;;;;;4.90;2.72;;;;;;;;;;5063049;28;20135;-64
2023/07/29 05:46:05;;;;;;;7.80;2.92;;;;;;;;;;5061003;28;20139;-63
2023/07/29 05:48:31;;;;;;;5.70;3.10;;;;;;;;;;5042961;28;20037;-67
2023/07/29 05:50:58;;;;;;;5.78;3.50;;;;;;;;;;5061744;28;20044;-64
2023/07/29 05:53:24;;;;;;;6.50;3.38;;;;;;;;;;5058378;28;20060;-65
2023/07/29 05:55:51;;;;;;;6.13;4.00;;;;;;;;;;5059621;28;20044;-65
2023/07/29 05:58:18;;;;;;;5.63;3.60;;;;;;;;;;5045351;28;20039;-65
2023/07/29 06:00:44;;;;;;;6.82;4.22;;;;;;;;;;5061110;28;20044;-65
2023/07/29 06:03:11;;;;;;;6.68;4.50;;;;;;;;;;5045281;28;20055;-66
2023/07/29 06:05:37;;;;;;;5.53;3.80;;;;;;;;;;5061668;28;20032;-64
2023/07/29 06:08:04;;;;;;;6.20;4.20;;;;;;;;;;5062269;28;20115;-65
2023/07/29 06:10:32;;;;;;;6.72;4.40;;;;;;;;;;5060992;28;20041;-65
2023/07/29 06:12:58;;;;;;;8.23;4.78;;;;;;;;;;5058310;28;20032;-64
2023/07/29 06:15:25;;;;;;;9.02;4.50;;;;;;;;;;5061518;28;20386;-64
2023/07/29 06:17:52;;;;;;;7.15;5.03;;;;;;;;;;5062823;28;20138;-66
2023/07/29 06:20:18;;;;;;;7.25;4.32;;;;;;;;;;5035729;28;20032;-63
2023/07/29 06:22:45;;;;;;;9.30;5.00;;;;;;;;;;5064830;28;20044;-64
2023/07/29 06:25:11;;;;;;;9.40;4.85;;;;;;;;;;5061348;28;20044;-65
2023/07/29 06:27:38;;;;;;;6.63;4.50;;;;;;;;;;5060724;28;20666;-63
2023/07/29 06:30:05;;;;;;;6.68;4.35;;;;;;;;;;5059734;28;20135;-64
2023/07/29 06:32:32;;;;;;;5.88;4.20;;;;;;;;;;5061415;28;20074;-65
2023/07/29 06:34:58;;;;;;;8.32;4.55;;;;;;;;;;5063269;28;20071;-65
2023/07/29 06:37:25;;;;;;;7.20;4.60;;;;;;;;;;5053950;28;20074;-65
2023/07/29 06:39:52;;;;;;;6.93;4.70;;;;;;;;;;5063453;28;20033;-69
2023/07/29 06:42:18;;;;;;;5.97;4.00;;;;;;;;;;5063420;28;20038;-66
2023/07/29 06:44:45;;;;;;;7.78;4.93;;;;;;;;;;5046084;28;20077;-65
2023/07/29 06:47:12;;;;;;;8.02;5.13;;;;;;;;;;5063806;28;20127;-65
2023/07/29 06:49:39;;;;;;;10.93;4.78;;;;;;;;;;5045321;28;20543;-64
2023/07/29 06:52:05;;;;;;;7.68;4.68;;;;;;;;;;5065266;28;20163;-65
2023/07/29 06:54:32;;;;;;;7.40;4.15;;;;;;;;;;5061982;28;20025;-68
2023/07/29 06:56:59;;;;;;;7.97;4.75;;;;;;;;;;5062335;28;20257;-66
2023/07/29 06:59:25;;;;;;;7.20;4.55;;;;;;;;;;5061075;28;20098;-65
2023/07/29 07:01:52;;;;;;;7.28;4.65;;;;;;;;;;5060885;28;20040;-65
2023/07/29 07:04:19;;;;;;;9.75;4.50;;;;;;;;;;5062681;28;20055;-65
2023/07/29 07:06:45;;;;;;;8.35;5.13;;;;;;;;;;5060549;28;20039;-65
2023/07/29 07:09:12;;;;;;;8.07;4.43;;;;;;;;;;5059652;28;20039;-66
2023/07/29 07:11:38;;;;;;;9.60;4.97;;;;;;;;;;5059354;28;20044;-66
2023/07/29 07:14:05;;;;;;;8.20;4.55;;;;;;;;;;5033656;28;20044;-66
2023/07/29 07:16:35;;;;;;;8.80;4.88;;;;;;;;;;5042143;28;20122;-66
2023/07/29 07:19:02;;;;;;;8.07;4.70;;;;;;;;;;5062467;28;20044;-66
2023/07/29 07:21:28;;;;;;;7.20;4.95;;;;;;;;;;5063052;28;20036;-65
2023/07/29 07:23:55;;;;;;;7.03;4.97;;;;;;;;;;5058918;28;20054;-64
2023/07/29 07:26:21;;;;;;;9.30;5.38;;;;;;;;;;5061091;28;20037;-68
2023/07/29 07:28:48;;;;;;;8.30;4.60;;;;;;;;;;5060039;28;20039;-63
2023/07/29 07:31:16;;;;;;;8.68;5.22;;;;;;;;;;5059948;28;20064;-65
2023/07/29 07:33:42;;;;;;;10.57;4.97;;;;;;;;;;5058882;28;20037;-65
2023/07/29 07:36:09;;;;;;;6.68;4.38;;;;;;;;;;5061253;28;20070;-64
2023/07/29 07:38:36;;;;;;;7.20;4.75;;;;;;;;;;5059139;28;20045;-65
2023/07/29 07:41:03;;;;;;;7.55;4.72;;;;;;;;;;5061454;28;20036;-65
2023/07/29 07:43:29;;;;;;;8.48;4.90;;;;;;;;;;5049229;28;20040;-64
2023/07/29 07:46:00;;;;;;;8.50;4.93;;;;;;;;;;5060121;28;20040;-64
2023/07/29 07:48:27;;;;;;;7.57;5.00;;;;;;;;;;5060857;28;20039;-66
2023/07/29 07:50:53;;;;;;;7.95;5.00;;;;;;;;;;5032238;28;20032;-64
2023/07/29 07:53:20;;;;;;;10.32;4.82;;;;;;;;;;5059301;28;20479;-64
2023/07/29 07:55:47;;;;;;;7.70;4.93;;;;;;;;;;5044727;28;20040;-65
2023/07/29 07:58:13;;;;;;;8.25;5.40;;;;;;;;;;5035839;28;20040;-64
2023/07/29 08:00:40;;;;;;;8.77;5.70;;;;;;;;;;5061569;28;20055;-64
2023/07/29 08:03:07;;;;;;;8.52;5.10;;;;;;;;;;5060835;28;20048;-65
2023/07/29 08:05:33;;;;;;;8.90;5.07;;;;;;;;;;5032655;28;20039;-64
2023/07/29 08:08:00;;;;;;;7.15;4.75;;;;;;;;;;5060108;28;21783;-64
2023/07/29 08:10:27;;;;;;;8.35;5.20;;;;;;;;;;5059422;28;20033;-65
2023/07/29 08:12:53;;;;;;;8.20;4.97;;;;;;;;;;5040350;28;20033;-65
2023/07/29 08:15:20;;;;;;;8.73;5.38;;;;;;;;;;5034495;28;20048;-64
2023/07/29 08:17:46;;;;;;;9.18;5.10;;;;;;;;;;5063973;28;20153;-66
2023/07/29 08:20:13;;;;;;;10.68;4.75;;;;;;;;;;5063866;28;20444;-63
2023/07/29 08:22:40;;;;;;;7.78;4.90;;;;;;;;;;5061977;28;20054;-65
2023/07/29 08:25:07;;;;;;;7.10;4.68;;;;;;;;;;5060663;28;20064;-66
2023/07/29 08:27:34;;;;;;;8.18;5.38;;;;;;;;;;5043747;28;20301;-64
2023/07/29 08:30:01;;;;;;;7.40;4.80;;;;;;;;;;5064378;28;20504;-66
2023/07/29 08:32:27;;;;;;;11.20;6.13;;;;;;;;;;5035449;28;20398;-65
2023/07/29 08:34:54;;;;;;;7.25;5.10;;;;;;;;;;5034745;28;20036;-64
2023/07/29 08:37:21;;;;;;;7.45;5.15;;;;;;;;;;5048326;28;20036;-64
2023/07/29 08:39:47;;;;;;;8.13;5.15;;;;;;;;;;5061857;28;20040;-65
2023/07/29 08:42:14;;;;;;;8.27;5.28;;;;;;;;;;5064000;28;20039;-64
2023/07/29 08:44:42;;;;;;;8.45;5.35;;;;;;;;;;5062587;28;20380;-65
2023/07/29 08:47:09;;;;;;;7.97;5.18;;;;;;;;;;5063487;28;20040;-66
2023/07/29 08:49:56;;;;;;;7.30;4.95;;;;;;;;;;5009360;28;20048;-64
2023/07/29 08:52:22;;;;;;;9.23;5.32;;;;;;;;;;5008141;28;20034;-65
2023/07/29 08:54:49;;;;;;;9.93;5.28;;;;;;;;;;5011759;28;20157;-65
2023/07/29 08:57:16;;;;;;;7.80;5.20;;;;;;;;;;5011095;28;20391;-65
2023/07/29 08:59:43;;;;;;;11.02;4.80;;;;;;;;;;5007414;28;21034;-65
2023/07/29 09:02:09;;;;;;;9.02;5.70;;;;;;;;;;5006868;28;20088;-66
2023/07/29 09:04:36;;;;;;;8.80;5.93;;;;;;;;;;5007241;28;20594;-64
2023/07/29 09:07:03;;;;;;;8.30;5.72;;;;;;;;;;5009177;28;20046;-65
2023/07/29 09:09:30;;;;;;;8.68;5.53;;;;;;;;;;5008122;28;20413;-66
2023/07/29 09:11:57;;;;;;;8.10;5.53;;;;;;;;;;5010651;28;20566;-67
2023/07/29 09:14:24;;;;;;;8.93;5.68;;;;;;;;;;5009941;28;20037;-65
2023/07/29 09:16:54;;;;;;;8.10;5.00;;;;;;;;;;5010558;28;20050;-66
2023/07/29 09:19:21;;;;;;;8.73;5.60;;;;;;;;;;5010765;28;21052;-66
2023/07/29 09:21:47;;;;;;;8.70;5.93;;;;;;;;;;5056566;28;20049;-65
2023/07/29 09:24:19;;;;;;;7.57;5.30;;;;;;;;;;5065334;28;20056;-64
2023/07/29 09:26:54;;;;;;;10.30;6.07;;;;;;;;;;5063804;28;20037;-63
2023/07/29 09:29:24;;;;;;;10.43;5.97;;;;;;;;;;5047702;28;20480;-64
2023/07/29 09:31:50;;;;;;;8.60;5.80;;;;;;;;;;5034968;28;20045;-66
2023/07/29 09:34:17;;;;;;;11.55;6.75;;;;;;;;;;5062242;28;20056;-65
2023/07/29 09:36:44;;;;;;;8.82;6.10;;;;;;;;;;5027450;28;20044;-65
2023/07/29 09:39:14;;;;;;;9.35;6.32;;;;;;;;;;5062362;28;20040;-65
2023/07/29 09:41:40;;;;;;;9.98;6.60;;;;;;;;;;5060429;28;20455;-69
2023/07/29 09:44:07;;;;;;;9.57;6.20;;;;;;;;;;5064264;28;20055;-65
2023/07/29 09:46:36;;;;;;;9.55;6.75;;;;;;;;;;5044738;28;20037;-65
2023/07/29 09:49:03;;;;;;;10.10;6.85;;;;;;;;;;5063359;28;20040;-66
2023/07/29 09:51:30;;;;;;;11.10;7.00;;;;;;;;;;5063851;28;20388;-65
2023/07/29 09:53:58;;;;;;;12.27;6.88;;;;;;;;;;5045774;28;20036;-65
2023/07/29 09:56:28;;;;;;;10.95;6.80;;;;;;;;;;5059599;28;20105;-66
2023/07/29 09:58:58;;;;;;;11.77;7.43;;;;;;;;;;5061957;28;20109;-66
2023/07/29 10:01:25;;;;;;;11.75;7.35;;;;;;;;;;5061919;28;20091;-63
2023/07/29 10:03:51;;;;;;;11.70;7.40;;;;;;;;;;5032438;28;20037;-65
2023/07/29 10:06:18;;;;;;;10.30;6.78;;;;;;;;;;5045307;28;20486;-66
2023/07/29 10:08:45;;;;;;;12.18;7.07;;;;;;;;;;5044171;28;20136;-66
2023/07/29 10:11:13;;;;;;;11.25;7.53;;;;;;;;;;5044585;28;20048;-65
2023/07/29 10:13:39;;;;;;;10.40;7.38;;;;;;;;;;5044347;28;20055;-65
2023/07/29 10:16:06;;;;;;;11.48;7.32;;;;;;;;;;5046193;28;20059;-63
2023/07/29 10:18:33;;;;;;;10.48;7.65;;;;;;;;;;5040176;28;20037;-63
2023/07/29 10:21:00;;;;;;;14.30;8.00;;;;;;;;;;5050909;28;20045;-64
2023/07/29 10:23:28;;;;;;;11.88;8.05;;;;;;;;;;5040737;28;20039;-64
2023/07/29 10:26:05;;;;;;;11.52;8.25;;;;;;;;;;5044396;28;20846;-63
2023/07/29 10:28:32;;;;;;;12.18;8.40;;;;;;;;;;5053521;28;20033;-63
2023/07/29 10:30:59;;;;;;;14.75;9.45;;;;;;;;;;5042507;28;20632;-63
2023/07/29 10:33:26;;;;;;;13.23;8.38;;;;;;;;;;5047150;28;20049;-63
2023/07/29 10:35:53;;;;;;;13.48;8.80;;;;;;;;;;5045075;28;20049;-62
2023/07/29 10:38:22;;;;;;;13.40;8.75;;;;;;;;;;5043130;28;20041;-64
2023/07/29 10:41:01;;;;;;;12.75;8.85;;;;;;;;;;5047292;28;20037;-63
2023/07/29 10:43:32;;;;;;;15.93;9.50;;;;;;;;;;5043978;28;20063;-64
2023/07/29 10:46:18;;;;;;;15.60;9.95;;;;;;;;;;5043397;28;20032;-64
2023/07/29 10:48:52;;;;;;;21.00;9.75;;;;;;;;;;5046378;28;20048;-64
2023/07/29 10:51:35;;;;;;;19.30;10.43;;;;;;;;;;5041436;28;20049;-64
2023/07/29 10:54:05;;;;;;;16.70;10.37;;;;;;;;;;5042536;28;20040;-66
2023/07/29 10:56:33;;;;;;;17.58;10.55;;;;;;;;;;5043839;28;20371;-62
2023/07/29 10:59:03;;;;;;;18.73;10.75;;;;;;;;;;5040988;28;20042;-63
2023/07/29 11:01:34;;;;;;;21.50;11.25;;;;;;;;;;5042475;28;20041;-63
2023/07/29 11:04:29;;;;;;;16.20;9.75;;;;;;;;;;5057671;28;20127;-63
2023/07/29 11:07:04;;;;;;;17.60;10.13;;;;;;;;;;5062068;28;20147;-64
2023/07/29 11:09:50;;;;;;;19.00;11.25;;;;;;;;;;5049061;28;20063;-65
2023/07/29 11:12:35;;;;;;;16.65;9.82;;;;;;;;;;5062831;28;20054;-66
2023/07/29 11:15:06;;;;;;;18.80;11.52;;;;;;;;;;5057673;28;20047;-66
2023/07/29 11:17:36;;;;;;;17.35;10.30;;;;;;;;;;5031869;28;20040;-66
2023/07/29 11:20:04;;;;;;;20.35;11.85;;;;;;;;;;5033456;28;20033;-67
2023/07/29 11:22:31;;;;;;;18.85;11.55;;;;;;;;;;5061844;28;20028;-64
2023/07/29 11:24:58;;;;;;;16.42;10.95;;;;;;;;;;5062456;28;20055;-64
2023/07/29 11:27:24;;;;;;;17.92;10.63;;;;;;;;;;5060356;28;20032;-65
2023/07/29 11:29:51;;;;;;;17.42;11.23;;;;;;;;;;5061916;28;20044;-65
2023/07/29 11:32:18;;;;;;;19.75;11.80;;;;;;;;;;5063676;28;20036;-65
2023/07/29 11:34:44;;;;;;;18.10;11.60;;;;;;;;;;5061012;28;20111;-65
2023/07/29 11:37:12;;;;;;;18.33;11.45;;;;;;;;;;5059009;28;20048;-64
2023/07/29 11:39:42;;;;;;;22.92;12.18;;;;;;;;;;5046370;28;20572;-64
2023/07/29 11:42:12;;;;;;;20.23;12.13;;;;;;;;;;5056141;28;20036;-64
2023/07/29 11:44:38;;;;;;;20.52;12.90;;;;;;;;;;5018962;28;20074;-66
2023/07/29 11:47:08;;;;;;;20.50;12.30;;;;;;;;;;5015308;28;20056;-65
2023/07/29 11:49:35;;;;;;;18.98;12.18;;;;;;;;;;5017562;28;20083;-64
2023/07/29 11:52:03;;;;;;;16.23;11.13;;;;;;;;;;5021072;28;20205;-65
2023/07/29 11:54:30;;;;;;;22.23;11.48;;;;;;;;;;5003625;28;20041;-64
2023/07/29 11:56:57;;;;;;;17.98;11.18;;;;;;;;;;5019681;28;20196;-64
2023/07/29 11:59:24;;;;;;;17.38;11.65;;;;;;;;;;5018952;28;20127;-64
2023/07/29 12:01:50;;;;;;;17.02;10.90;;;;;;;;;;5020706;28;20099;-64
2023/07/29 12:04:17;;;;;;;17.73;10.38;;;;;;;;;;5021242;28;20589;-64
2023/07/29 12:06:44;;;;;;;18.63;11.13;;;;;;;;;;5019923;28;20095;-66
2023/07/29 12:09:13;;;;;;;16.30;10.43;;;;;;;;;;5021136;28;20793;-64
2023/07/29 12:11:40;;;;;;;17.17;9.75;;;;;;;;;;5017070;28;20048;-64
2023/07/29 12:14:08;;;;;;;14.80;9.80;;;;;;;;;;5021251;28;20080;-63
2023/07/29 12:16:41;;;;;;;14.50;9.93;;;;;;;;;;5017191;28;20073;-64
2023/07/29 12:19:08;;;;;;;15.77;10.25;;;;;;;;;;5026034;28;20036;-65
2023/07/29 12:21:35;;;;;;;15.07;10.07;;;;;;;;;;5032843;28;20444;-65
2023/07/29 12:24:03;;;;;;;16.67;10.48;;;;;;;;;;5063029;28;20037;-66
2023/07/29 12:26:32;;;;;;;16.00;10.10;;;;;;;;;;5064549;28;20431;-64
2023/07/29 12:28:58;;;;;;;15.07;10.50;;;;;;;;;;5067929;28;20123;-64
2023/07/29 12:31:34;;;;;;;15.98;10.98;;;;;;;;;;5037506;28;20703;-64
2023/07/29 12:34:01;;;;;;;14.73;9.55;;;;;;;;;;5062285;28;20052;-67
2023/07/29 12:36:44;;;;;;;16.52;10.63;;;;;;;;;;5063943;28;20158;-64
2023/07/29 12:39:17;;;;;;;13.80;9.25;;;;;;;;;;5062188;28;20149;-66
2023/07/29 12:41:44;;;;;;;15.55;9.82;;;;;;;;;;5066753;28;20615;-65
2023/07/29 12:44:10;;;;;;;17.67;11.18;;;;;;;;;;5066670;28;20048;-64
2023/07/29 12:46:37;;;;;;;16.88;10.82;;;;;;;;;;5066982;28;20094;-65
2023/07/29 12:49:04;;;;;;;15.32;10.52;;;;;;;;;;5070055;28;20047;-64
2023/07/29 12:51:31;;;;;;;15.60;10.60;;;;;;;;;;5065668;28;20070;-64
2023/07/29 12:53:57;;;;;;;16.95;10.95;;;;;;;;;;5064322;28;20097;-65
2023/07/29 12:56:24;;;;;;;16.65;11.13;;;;;;;;;;5062178;28;20044;-64
2023/07/29 12:58:51;;;;;;;18.00;10.02;;;;;;;;;;5061359;28;20101;-65
2023/07/29 13:01:18;;;;;;;15.32;10.02;;;;;;;;;;5064136;28;20463;-65
2023/07/29 13:03:49;;;;;;;15.75;10.50;;;;;;;;;;5064767;28;20070;-65
2023/07/29 13:06:15;;;;;;;16.65;10.70;;;;;;;;;;5065820;28;20037;-65
2023/07/29 13:08:42;;;;;;;17.15;11.07;;;;;;;;;;5064576;28;20037;-65
2023/07/29 13:11:09;;;;;;;16.40;10.20;;;;;;;;;;5065128;28;20456;-65
2023/07/29 13:13:36;;;;;;;15.18;10.35;;;;;;;;;;5063826;28;20048;-65
2023/07/29 13:16:02;;;;;;;18.10;10.30;;;;;;;;;;5063172;28;20055;-68
2023/07/29 13:18:29;;;;;;;13.98;9.40;;;;;;;;;;5066628;28;20036;-66
2023/07/29 13:20:57;;;;;;;17.65;10.05;;;;;;;;;;5063191;28;20043;-67
2023/07/29 13:23:23;;;;;;;15.63;10.10;;;;;;;;;;5047557;28;20105;-66
2023/07/29 13:25:50;;;;;;;13.90;9.25;;;;;;;;;;5064244;28;20086;-66
2023/07/29 13:28:17;;;;;;;12.55;8.57;;;;;;;;;;5062078;28;20040;-66
2023/07/29 13:30:44;;;;;;;14.40;9.75;;;;;;;;;;5060253;28;20047;-65
2023/07/29 13:33:10;;;;;;;12.73;9.05;;;;;;;;;;5062367;28;20052;-67
2023/07/29 13:35:37;;;;;;;14.85;10.43;;;;;;;;;;5059008;28;20608;-66
2023/07/29 13:38:03;;;;;;;12.23;8.75;;;;;;;;;;5062354;28;20119;-66
2023/07/29 13:40:30;;;;;;;15.82;9.27;;;;;;;;;;5063033;28;20040;-66
2023/07/29 13:42:57;;;;;;;15.27;8.93;;;;;;;;;;5061469;28;20040;-66
2023/07/29 13:45:24;;;;;;;13.75;8.90;;;;;;;;;;5060627;28;20083;-65
2023/07/29 13:47:50;;;;;;;15.77;9.60;;;;;;;;;;5063075;28;20043;-66
2023/07/29 13:50:18;;;;;;;15.25;8.68;;;;;;;;;;5062762;28;20453;-65
2023/07/29 13:52:44;;;;;;;16.63;8.77;;;;;;;;;;5061024;28;20532;-65
2023/07/29 13:55:11;;;;;;;13.55;9.32;;;;;;;;;;5061288;28;20504;-65
2023/07/29 13:57:41;;;;;;;13.85;8.45;;;;;;;;;;5062481;28;20036;-65
2023/07/29 14:00:10;;;;;;;12.88;8.48;;;;;;;;;;5063128;28;20044;-64
2023/07/29 14:02:37;;;;;;;14.43;7.65;;;;;;;;;;5060911;28;20051;-66
2023/07/29 14:05:05;;;;;;;11.57;7.95;;;;;;;;;;5035792;28;20874;-63
2023/07/29 14:07:31;;;;;;;11.40;7.47;;;;;;;;;;5061721;28;20094;-65
2023/07/29 14:09:58;;;;;;;10.65;7.45;;;;;;;;;;5049159;28;20042;-65
2023/07/29 14:12:24;;;;;;;9.75;6.78;;;;;;;;;;5053972;28;20086;-63
2023/07/29 14:14:51;;;;;;;10.35;6.72;;;;;;;;;;5060882;28;20036;-66
2023/07/29 14:17:18;;;;;;;11.70;6.88;;;;;;;;;;5038731;28;20147;-63
2023/07/29 14:19:44;;;;;;;11.05;6.70;;;;;;;;;;5062381;28;20405;-65
2023/07/29 14:22:31;;;;;;;11.30;6.60;;;;;;;;;;4998102;28;20037;-63
2023/07/29 14:24:57;;;;;;;11.25;7.47;;;;;;;;;;4998587;28;20133;-64
2023/07/29 14:27:24;;;;;;;10.13;6.60;;;;;;;;;;4997944;28;20049;-64
2023/07/29 14:29:50;;;;;;;10.32;5.80;;;;;;;;;;4999200;28;20038;-65
2023/07/29 14:32:17;;;;;;;10.50;5.78;;;;;;;;;;4954831;28;20592;-64
2023/07/29 14:34:44;;;;;;;8.90;5.78;;;;;;;;;;4997191;28;20049;-65
2023/07/29 14:37:10;;;;;;;9.88;6.03;;;;;;;;;;4998247;28;20396;-65
2023/07/29 14:39:37;;;;;;;14.52;5.97;;;;;;;;;;4978596;28;20049;-65